Maysville, Iowa
Current Conditions -  °F | °C
As of 2:10 PM on Sunday 25 Jan 2015 (Local Time) from KDVN Reporting Station
Overcast Overcast  
Wind Chill: 16°   Ceiling: 3000
Heat Index: 29°   Visibility: 10mi
Dew Point: 22°   Wind: 20mph
Humidity: 75%   Direction: 20°NNE
Pressure: 29.87"   Gusts: 30mph
Location:  41.6175°N, 90.7599°W
Report Text: KDVN 252010Z AUTO 02017G26KT 10SM SCT016 OVC030 M02/M06 A2987 RMK AO2 PK WND 04027/1955 T10171056
Loading
Personal Weather Stations






























Interactive Weather Map New forecast layout! Learn more

10-Day Weather Forecast

Advertisements
Track Severe Weather on mobile